Time;durP1;ratioP1;P1;durP2;ratioP2;P2;SDS_P1;SDS_P2;PMS_P1;PMS_P2;Temp;Humidity;BMP_temperature;BMP_pressure;BME280_temperature;BME280_humidity;BME280_pressure;Samples;Min_cycle;Max_cycle;Signal;HPM_P1;HPM_P2
2023/04/06 00:00:08;;;;;;;12.68;8.35;;;;;;;0.00;100.00;59042.03;10385196;28;20395;-69
2023/04/06 00:05:09;;;;;;;13.00;7.50;;;;;;;0.00;100.00;59042.03;10353187;28;20077;-69
2023/04/06 00:10:09;;;;;;;15.40;8.68;;;;;;;0.00;100.00;59042.03;10375230;28;20105;-69
2023/04/06 00:15:10;;;;;;;13.25;7.65;;;;;;;0.00;100.00;59042.03;10370276;28;20040;-69
2023/04/06 00:20:11;;;;;;;15.80;8.55;;;;;;;0.00;100.00;59042.03;10400602;28;20025;-69
2023/04/06 00:25:11;;;;;;;15.02;8.43;;;;;;;0.00;100.00;59042.03;10393474;28;20025;-69
2023/04/06 00:30:12;;;;;;;13.88;7.63;;;;;;;0.00;100.00;59042.03;10382635;28;20128;-69
2023/04/06 00:35:12;;;;;;;11.45;7.75;;;;;;;0.00;100.00;59042.03;10349186;28;20442;-69
2023/04/06 00:40:13;;;;;;;14.18;7.90;;;;;;;0.00;100.00;59042.03;10384940;28;20021;-69
2023/04/06 00:45:14;;;;;;;16.25;8.52;;;;;;;0.00;100.00;59042.03;10384695;28;20415;-69
2023/04/06 00:50:14;;;;;;;19.70;9.02;;;;;;;0.00;100.00;59042.03;10386309;28;20037;-68
2023/04/06 00:55:15;;;;;;;11.68;7.93;;;;;;;0.00;100.00;59042.03;10384348;28;20476;-70
2023/04/06 01:00:16;;;;;;;13.35;7.78;;;;;;;0.00;100.00;59042.03;10382468;28;20025;-69
2023/04/06 01:05:19;;;;;;;14.60;7.18;;;;;;;0.00;100.00;59042.03;10384592;28;20053;-68
2023/04/06 01:10:25;;;;;;;12.48;7.63;;;;;;;0.00;100.00;59042.03;10382499;28;20083;-68
2023/04/06 01:15:26;;;;;;;16.70;8.80;;;;;;;0.00;100.00;59042.03;10382408;28;20144;-69
2023/04/06 01:20:27;;;;;;;16.40;7.32;;;;;;;0.00;100.00;59042.03;10383986;28;20112;-69
2023/04/06 01:25:28;;;;;;;13.90;7.82;;;;;;;0.00;100.00;59042.03;10382842;28;20039;-69
2023/04/06 01:30:28;;;;;;;12.93;8.13;;;;;;;0.00;100.00;59042.03;10382985;28;20029;-69
2023/04/06 01:35:29;;;;;;;18.25;7.18;;;;;;;0.00;100.00;59042.03;10382720;28;20108;-68
2023/04/06 01:40:30;;;;;;;16.02;7.68;;;;;;;0.00;100.00;59042.03;10382367;28;20033;-68
2023/04/06 01:45:30;;;;;;;13.55;7.68;;;;;;;0.00;100.00;59042.03;10382518;28;20025;-68
2023/04/06 01:50:31;;;;;;;19.67;8.85;;;;;;;0.00;100.00;59042.03;10397905;28;20028;-68
2023/04/06 01:55:31;;;;;;;15.82;7.78;;;;;;;0.00;100.00;59042.03;10421528;28;20102;-68
2023/04/06 02:00:32;;;;;;;12.82;8.75;;;;;;;0.00;100.00;59042.03;10387098;28;20091;-70
2023/04/06 02:05:37;;;;;;;13.07;7.70;;;;;;;0.00;100.00;59042.03;10381499;28;20029;-68
2023/04/06 02:10:38;;;;;;;15.07;7.75;;;;;;;0.00;100.00;59042.03;10381675;28;20024;-70
2023/04/06 02:15:38;;;;;;;13.55;8.68;;;;;;;0.00;100.00;59042.03;10381964;28;20029;-68
2023/04/06 02:20:39;;;;;;;10.70;7.35;;;;;;;0.00;100.00;59042.03;10397070;28;20017;-68
2023/04/06 02:25:40;;;;;;;12.38;6.50;;;;;;;0.00;100.00;59042.03;10421987;28;20113;-69
2023/04/06 02:30:40;;;;;;;12.93;6.60;;;;;;;0.00;100.00;59042.03;10350016;28;20091;-69
2023/04/06 02:35:40;;;;;;;16.90;8.90;;;;;;;0.00;100.00;59042.03;10345677;28;20029;-69
2023/04/06 02:40:41;;;;;;;12.55;7.40;;;;;;;0.00;100.00;59042.03;10380468;28;20476;-69
2023/04/06 02:45:41;;;;;;;12.27;7.18;;;;;;;0.00;100.00;59042.03;10380611;28;20435;-69
2023/04/06 02:50:42;;;;;;;14.88;8.63;;;;;;;0.00;100.00;59042.03;10379005;28;20021;-69
2023/04/06 02:55:42;;;;;;;12.70;8.30;;;;;;;0.00;100.00;59042.03;10379785;28;20463;-69
2023/04/06 03:00:43;;;;;;;15.57;8.05;;;;;;;0.00;100.00;59042.03;10379342;28;20084;-69
2023/04/06 03:05:44;;;;;;;19.33;8.73;;;;;;;0.00;100.00;59042.03;10379784;28;20025;-70
2023/04/06 03:10:44;;;;;;;17.15;8.15;;;;;;;0.00;100.00;59042.03;10381127;28;20495;-70
2023/04/06 03:15:45;;;;;;;12.60;7.03;;;;;;;0.00;100.00;59042.03;10386537;28;20039;-69
2023/04/06 03:20:47;;;;;;;12.88;7.43;;;;;;;0.00;100.00;59042.03;10388004;28;20021;-69
2023/04/06 03:25:47;;;;;;;14.57;8.23;;;;;;;0.00;100.00;59042.03;10387868;28;20059;-69
2023/04/06 03:30:49;;;;;;;12.88;7.93;;;;;;;0.00;100.00;59042.03;10386312;28;20037;-69
2023/04/06 03:35:49;;;;;;;20.60;8.07;;;;;;;0.00;100.00;59042.03;10386919;28;20033;-69
2023/04/06 03:40:50;;;;;;;14.38;7.72;;;;;;;0.00;100.00;59042.03;10386248;28;20525;-69
2023/04/06 03:45:50;;;;;;;12.60;7.25;;;;;;;0.00;100.00;59042.03;10385179;28;20033;-69
2023/04/06 03:50:50;;;;;;;13.50;6.60;;;;;;;0.00;100.00;59042.03;10386267;28;20036;-69
2023/04/06 03:55:51;;;;;;;19.27;8.48;;;;;;;0.00;100.00;59042.03;10384897;28;20495;-69
2023/04/06 04:00:51;;;;;;;9.63;5.93;;;;;;;0.00;100.00;59042.03;10384248;28;20053;-68
2023/04/06 04:05:52;;;;;;;14.70;7.65;;;;;;;0.00;100.00;59042.03;10384877;28;20047;-68
2023/04/06 04:10:52;;;;;;;12.35;6.57;;;;;;;0.00;100.00;59042.03;10384136;28;20099;-68
2023/04/06 04:15:53;;;;;;;13.32;7.00;;;;;;;0.00;100.00;59042.03;10380603;28;20040;-69
2023/04/06 04:20:53;;;;;;;12.30;6.93;;;;;;;0.00;100.00;59042.03;10371933;28;20032;-69
2023/04/06 04:25:54;;;;;;;12.45;8.35;;;;;;;0.00;100.00;59042.03;10371569;28;20049;-70
2023/04/06 04:30:54;;;;;;;11.27;6.90;;;;;;;0.00;100.00;59042.03;10378984;28;20670;-69
2023/04/06 04:35:55;;;;;;;16.05;8.60;;;;;;;0.00;100.00;59042.03;10367586;28;20464;-68
2023/04/06 04:40:55;;;;;;;14.00;7.93;;;;;;;0.00;100.00;59042.03;10370390;28;20028;-69
2023/04/06 04:45:56;;;;;;;14.90;6.60;;;;;;;0.00;100.00;59042.03;10381917;28;20415;-70
2023/04/06 04:50:56;;;;;;;20.10;7.10;;;;;;;0.00;100.00;59042.03;10347083;28;20166;-67
2023/04/06 04:55:57;;;;;;;11.88;6.95;;;;;;;0.00;100.00;59042.03;10357475;28;20081;-67
2023/04/06 05:00:57;;;;;;;15.77;7.45;;;;;;;0.00;100.00;59042.03;10382972;28;20507;-69
2023/04/06 05:05:58;;;;;;;15.50;7.22;;;;;;;0.00;100.00;59042.03;10382023;28;20043;-68
2023/04/06 05:10:58;;;;;;;17.50;7.90;;;;;;;0.00;100.00;59042.03;10360320;28;20751;-68
2023/04/06 05:15:59;;;;;;;17.33;7.85;;;;;;;0.00;100.00;59042.03;10380140;28;20037;-68
2023/04/06 05:20:59;;;;;;;16.52;8.02;;;;;;;0.00;100.00;59042.03;10380296;28;20029;-68
2023/04/06 05:26:00;;;;;;;19.25;9.07;;;;;;;0.00;100.00;59042.03;10381058;28;20025;-68
2023/04/06 05:31:00;;;;;;;16.20;8.25;;;;;;;0.00;100.00;59042.03;10373308;28;20049;-67
2023/04/06 05:36:01;;;;;;;17.15;9.55;;;;;;;0.00;100.00;59042.03;10348810;28;20890;-67
2023/04/06 05:41:02;;;;;;;17.90;8.85;;;;;;;0.00;100.00;59042.03;10382084;28;20025;-67
2023/04/06 05:46:02;;;;;;;19.98;9.05;;;;;;;0.00;100.00;59042.03;10380096;28;20429;-68
2023/04/06 05:51:06;;;;;;;20.80;10.02;;;;;;;0.00;100.00;59042.03;10381612;28;20021;-68
2023/04/06 05:56:06;;;;;;;20.92;9.18;;;;;;;0.00;100.00;59042.03;10379848;28;20095;-68
2023/04/06 06:01:08;;;;;;;18.88;9.60;;;;;;;0.00;100.00;59042.03;10380905;28;20081;-68
2023/04/06 06:06:09;;;;;;;24.60;10.18;;;;;;;0.00;100.00;59042.03;10379351;28;20033;-68
2023/04/06 06:11:09;;;;;;;20.48;10.98;;;;;;;0.00;100.00;59042.03;10341533;28;20415;-68
2023/04/06 06:16:11;;;;;;;25.52;10.93;;;;;;;0.00;100.00;59042.03;10365456;28;20045;-68
2023/04/06 06:21:12;;;;;;;21.90;10.97;;;;;;;0.00;100.00;59042.03;10381705;28;20030;-68
2023/04/06 06:26:12;;;;;;;19.75;10.35;;;;;;;0.00;100.00;59042.03;10381947;28;20762;-68
2023/04/06 06:31:13;;;;;;;30.07;9.93;;;;;;;0.00;100.00;59042.03;10381370;28;20498;-68
2023/04/06 06:36:13;;;;;;;24.25;12.15;;;;;;;0.00;100.00;59042.03;10381312;28;20272;-68
2023/04/06 06:41:14;;;;;;;26.15;13.10;;;;;;;0.00;100.00;59042.03;10342722;28;20029;-68
2023/04/06 06:46:14;;;;;;;23.33;10.95;;;;;;;0.00;100.00;59042.03;10380835;28;20028;-67
2023/04/06 06:51:15;;;;;;;20.45;10.20;;;;;;;0.00;100.00;59042.03;10380998;28;20496;-67
2023/04/06 06:56:15;;;;;;;25.05;9.50;;;;;;;0.00;100.00;59042.03;10380409;28;20025;-68
2023/04/06 07:01:16;;;;;;;25.17;9.82;;;;;;;0.00;100.00;59042.03;10379949;28;20073;-68
2023/04/06 07:06:16;;;;;;;20.50;9.15;;;;;;;0.00;100.00;59042.03;10380756;28;20037;-67
2023/04/06 07:11:16;;;;;;;15.23;8.30;;;;;;;0.00;100.00;59042.03;10379857;28;20026;-68
2023/04/06 07:16:17;;;;;;;16.17;8.13;;;;;;;0.00;100.00;59042.03;10379970;28;20357;-68
2023/04/06 07:21:17;;;;;;;17.23;8.33;;;;;;;0.00;100.00;59042.03;10379619;28;20080;-67
2023/04/06 07:26:18;;;;;;;15.32;8.35;;;;;;;0.00;100.00;59042.03;10353865;28;20334;-67
2023/04/06 07:31:18;;;;;;;14.23;6.88;;;;;;;0.00;100.00;59042.03;10353311;28;20030;-68
2023/04/06 07:36:20;;;;;;;12.65;7.00;;;;;;;0.00;100.00;59042.03;10379939;28;20025;-67
2023/04/06 07:41:20;;;;;;;13.50;7.20;;;;;;;0.00;100.00;59042.03;10379427;28;20040;-67
2023/04/06 07:46:21;;;;;;;14.30;6.93;;;;;;;0.00;100.00;59042.03;10379364;28;20037;-67
2023/04/06 07:51:21;;;;;;;11.18;6.15;;;;;;;0.00;100.00;59042.03;10379597;28;20279;-68
2023/04/06 07:56:23;;;;;;;16.03;8.27;;;;;;;0.00;100.00;59042.03;10380506;28;20037;-68
2023/04/06 08:01:24;;;;;;;12.52;7.82;;;;;;;0.00;100.00;59042.03;10385227;28;20296;-67
2023/04/06 08:06:26;;;;;;;16.25;8.65;;;;;;;0.00;100.00;59042.03;10386900;28;20041;-67
2023/04/06 08:11:26;;;;;;;14.52;7.53;;;;;;;0.00;100.00;59042.03;10385831;28;20025;-68
2023/04/06 08:16:27;;;;;;;14.50;7.82;;;;;;;0.00;100.00;59042.03;10386492;28;20060;-68
2023/04/06 08:21:27;;;;;;;11.85;7.95;;;;;;;0.00;100.00;59042.03;10384274;28;20038;-67
2023/04/06 08:26:28;;;;;;;15.50;7.53;;;;;;;0.00;100.00;59042.03;10385927;28;20875;-67
2023/04/06 08:31:28;;;;;;;11.00;7.18;;;;;;;0.00;100.00;59042.03;10385398;28;20519;-67
2023/04/06 08:36:29;;;;;;;12.52;7.97;;;;;;;0.00;100.00;59042.03;10385433;28;20025;-67
2023/04/06 08:41:29;;;;;;;16.65;7.65;;;;;;;0.00;100.00;59042.03;10385095;28;20029;-68
2023/04/06 08:46:30;;;;;;;13.40;6.97;;;;;;;0.00;100.00;59042.03;10384678;28;20022;-67
2023/04/06 08:51:31;;;;;;;9.65;5.05;;;;;;;0.00;100.00;59042.03;10384222;28;20029;-67
2023/04/06 08:56:31;;;;;;;9.60;6.23;;;;;;;0.00;100.00;59042.03;10383345;28;20028;-69
2023/04/06 09:01:37;;;;;;;16.38;6.22;;;;;;;0.00;100.00;59042.03;10384539;28;20312;-68
2023/04/06 09:06:38;;;;;;;12.52;6.22;;;;;;;0.00;100.00;59042.03;10384291;28;20091;-68
2023/04/06 09:11:47;;;;;;;15.02;7.15;;;;;;;0.00;100.00;59042.03;10383769;28;20120;-68
2023/04/06 09:16:47;;;;;;;15.32;6.18;;;;;;;0.00;100.00;59042.03;10383979;28;20029;-67
2023/04/06 09:21:48;;;;;;;13.45;7.95;;;;;;;0.00;100.00;59042.03;10382812;28;20059;-68
2023/04/06 09:26:48;;;;;;;12.48;8.15;;;;;;;0.00;100.00;59042.03;10383232;28;20373;-68
2023/04/06 09:31:49;;;;;;;13.57;8.10;;;;;;;0.00;100.00;59042.03;10382744;28;20104;-67
2023/04/06 09:36:49;;;;;;;12.05;6.82;;;;;;;0.00;100.00;59042.03;10382578;28;20025;-68
2023/04/06 09:41:52;;;;;;;13.10;7.47;;;;;;;0.00;100.00;59042.03;10357230;28;20568;-68
2023/04/06 09:46:54;;;;;;;12.77;7.07;;;;;;;0.00;100.00;59042.03;10342065;28;20032;-68
2023/04/06 09:52:15;;;;;;;12.77;7.22;;;;;;;0.00;100.00;59042.03;10372135;28;20064;-68
2023/04/06 09:58:08;;;;;;;18.60;8.13;;;;;;;0.00;100.00;59042.03;10382347;28;20091;-68
2023/04/06 10:03:28;;;;;;;10.82;6.05;;;;;;;0.00;100.00;59042.03;10335154;28;20080;-67
2023/04/06 10:08:31;;;;;;;10.52;5.35;;;;;;;0.00;100.00;59042.03;10381680;28;20735;-67
2023/04/06 10:13:32;;;;;;;9.15;5.90;;;;;;;0.00;100.00;59042.03;10381651;28;20049;-68
2023/04/06 10:18:33;;;;;;;9.95;5.20;;;;;;;0.00;100.00;59042.03;10381386;28;20437;-68
2023/04/06 10:23:38;;;;;;;12.57;5.32;;;;;;;0.00;100.00;59042.03;10381495;28;20369;-67
2023/04/06 10:28:41;;;;;;;9.10;4.05;;;;;;;0.00;100.00;59042.03;10381009;28;20444;-67
2023/04/06 10:33:57;;;;;;;6.30;4.80;;;;;;;0.00;100.00;59042.03;10379998;28;20029;-68
2023/04/06 10:39:03;;;;;;;10.18;5.82;;;;;;;0.00;100.00;59042.03;10380601;28;20029;-68
2023/04/06 10:44:04;;;;;;;8.57;5.38;;;;;;;0.00;100.00;59042.03;10380449;28;20349;-67
2023/04/06 10:49:14;;;;;;;8.10;5.03;;;;;;;0.00;100.00;59042.03;10380636;28;20447;-68
2023/04/06 10:54:16;;;;;;;12.15;5.90;;;;;;;0.00;100.00;59042.03;10376317;28;20143;-68
2023/04/06 10:59:21;;;;;;;12.93;7.00;;;;;;;0.00;100.00;59042.03;10369237;28;20025;-68
2023/04/06 11:04:23;;;;;;;11.77;7.03;;;;;;;0.00;100.00;59042.03;10339169;28;20053;-69
2023/04/06 11:09:28;;;;;;;13.35;7.22;;;;;;;0.00;100.00;59042.03;10375880;28;20052;-68
2023/04/06 11:14:28;;;;;;;14.55;6.63;;;;;;;0.00;100.00;59042.03;10379226;28;20118;-67
2023/04/06 11:19:31;;;;;;;10.75;7.45;;;;;;;0.00;100.00;59042.03;10379630;28;20029;-68
2023/04/06 11:24:31;;;;;;;12.80;7.90;;;;;;;0.00;100.00;59042.03;10380724;28;20105;-67
2023/04/06 11:29:32;;;;;;;14.07;7.53;;;;;;;0.00;100.00;59042.03;10379859;28;20025;-67
2023/04/06 11:34:38;;;;;;;13.15;7.95;;;;;;;0.00;100.00;59042.03;10385424;28;20627;-67
2023/04/06 11:39:41;;;;;;;14.18;7.57;;;;;;;0.00;100.00;59042.03;10369194;28;20025;-67
2023/04/06 11:44:49;;;;;;;14.18;8.20;;;;;;;0.00;100.00;59042.03;10371732;28;20104;-67
2023/04/06 11:49:50;;;;;;;13.40;7.57;;;;;;;0.00;100.00;59042.03;10387743;28;20784;-68
2023/04/06 11:54:52;;;;;;;17.00;9.50;;;;;;;0.00;100.00;59042.03;10387087;28;20052;-67
2023/04/06 11:59:53;;;;;;;15.07;8.43;;;;;;;0.00;100.00;59042.03;10387141;28;20034;-67
2023/04/06 12:04:53;;;;;;;11.88;7.55;;;;;;;0.00;100.00;59042.03;10386631;28;20052;-70
2023/04/06 12:09:54;;;;;;;16.80;9.05;;;;;;;0.00;100.00;59042.03;10385031;28;20036;-68
2023/04/06 12:14:55;;;;;;;13.18;8.27;;;;;;;0.00;100.00;59042.03;10384473;28;20025;-67
2023/04/06 12:19:56;;;;;;;12.07;7.60;;;;;;;0.00;100.00;59042.03;10386260;28;20936;-67
2023/04/06 12:24:56;;;;;;;13.53;8.47;;;;;;;0.00;100.00;59042.03;10385841;28;20376;-67
2023/04/06 12:29:57;;;;;;;13.70;6.63;;;;;;;0.00;100.00;59042.03;10386149;28;20264;-67
2023/04/06 12:34:57;;;;;;;14.83;9.13;;;;;;;0.00;100.00;59042.03;10385411;28;20288;-67
2023/04/06 12:39:58;;;;;;;13.93;8.70;;;;;;;0.00;100.00;59042.03;10384993;28;20859;-67
2023/04/06 12:44:58;;;;;;;17.30;8.63;;;;;;;0.00;100.00;59042.03;10384516;28;20417;-67
2023/04/06 12:49:59;;;;;;;14.13;8.18;;;;;;;0.00;100.00;59042.03;10384497;28;20013;-68
2023/04/06 12:55:00;;;;;;;14.55;8.50;;;;;;;0.00;100.00;59042.03;10384837;28;20033;-68
2023/04/06 13:00:01;;;;;;;15.27;9.15;;;;;;;0.00;100.00;59042.03;10388542;28;20021;-68
2023/04/06 13:05:02;;;;;;;15.85;8.68;;;;;;;0.00;100.00;59042.03;10384274;28;20041;-68
2023/04/06 13:10:02;;;;;;;17.33;9.75;;;;;;;0.00;100.00;59042.03;10383799;28;20022;-67
2023/04/06 13:15:04;;;;;;;16.02;8.30;;;;;;;0.00;100.00;59042.03;10383928;28;20025;-68
2023/04/06 13:20:05;;;;;;;11.95;7.75;;;;;;;0.00;100.00;59042.03;10382072;28;20029;-68
2023/04/06 13:25:06;;;;;;;18.15;7.60;;;;;;;0.00;100.00;59042.03;10383096;28;20025;-68
2023/04/06 13:30:07;;;;;;;17.65;8.70;;;;;;;0.00;100.00;59042.03;10382912;28;20025;-68
2023/04/06 13:35:08;;;;;;;24.58;9.63;;;;;;;0.00;100.00;59042.03;10383175;28;20018;-68
2023/04/06 13:40:09;;;;;;;14.75;7.45;;;;;;;0.00;100.00;59042.03;10382436;28;20037;-68
2023/04/06 13:45:10;;;;;;;16.30;8.48;;;;;;;0.00;100.00;59042.03;10382595;28;20029;-69
2023/04/06 13:50:11;;;;;;;11.23;8.20;;;;;;;0.00;100.00;59042.03;10382051;28;20021;-67
2023/04/06 13:55:11;;;;;;;15.07;8.50;;;;;;;0.00;100.00;59042.03;10381099;28;20395;-67
2023/04/06 14:00:14;;;;;;;13.50;8.68;;;;;;;0.00;100.00;59042.03;10382070;28;20041;-67
2023/04/06 14:05:14;;;;;;;13.43;8.15;;;;;;;0.00;100.00;59042.03;10382007;28;20078;-68
2023/04/06 14:10:15;;;;;;;14.43;7.65;;;;;;;0.00;100.00;59042.03;10381023;28;20490;-68
2023/04/06 14:15:16;;;;;;;13.68;8.77;;;;;;;0.00;100.00;59042.03;10380403;28;20112;-68
2023/04/06 14:20:16;;;;;;;13.55;7.95;;;;;;;0.00;100.00;59042.03;10380817;28;20456;-68
2023/04/06 14:25:17;;;;;;;10.80;7.32;;;;;;;0.00;100.00;59042.03;10379494;28;20017;-68
2023/04/06 14:30:18;;;;;;;13.23;8.70;;;;;;;0.00;100.00;59042.03;10372099;28;20033;-68
2023/04/06 14:35:18;;;;;;;14.82;8.07;;;;;;;0.00;100.00;59042.03;10355208;28;20268;-68
2023/04/06 14:40:19;;;;;;;10.95;7.65;;;;;;;0.00;100.00;59042.03;10377052;28;20022;-67
2023/04/06 14:45:21;;;;;;;16.45;8.90;;;;;;;0.00;100.00;59042.03;10378902;28;20136;-68
2023/04/06 14:50:21;;;;;;;14.02;8.95;;;;;;;0.00;100.00;59042.03;10380091;28;20029;-67
2023/04/06 14:55:22;;;;;;;20.05;10.07;;;;;;;0.00;100.00;59042.03;10379722;28;20029;-67
2023/04/06 15:00:22;;;;;;;15.50;8.77;;;;;;;0.00;100.00;59042.03;10380258;28;20730;-68
2023/04/06 15:05:23;;;;;;;14.30;8.77;;;;;;;0.00;100.00;59042.03;10380494;28;20060;-67
2023/04/06 15:10:24;;;;;;;14.10;9.45;;;;;;;0.00;100.00;59042.03;10387687;28;20058;-67
2023/04/06 15:15:24;;;;;;;18.48;10.63;;;;;;;0.00;100.00;59042.03;10368302;28;20033;-67
2023/04/06 15:20:25;;;;;;;19.58;10.35;;;;;;;0.00;100.00;59042.03;10348490;28;20049;-67
2023/04/06 15:25:25;;;;;;;18.70;10.55;;;;;;;0.00;100.00;59042.03;10347356;28;20029;-67
2023/04/06 15:30:26;;;;;;;23.15;11.32;;;;;;;0.00;100.00;59042.03;10374985;28;20051;-67
2023/04/06 15:35:28;;;;;;;20.63;10.23;;;;;;;0.00;100.00;59042.03;10387545;28;20479;-66
2023/04/06 15:40:29;;;;;;;27.17;11.85;;;;;;;0.00;100.00;59042.03;10383877;28;20525;-68
2023/04/06 15:45:29;;;;;;;16.23;10.10;;;;;;;0.00;100.00;59042.03;10386501;28;20032;-68
2023/04/06 15:50:30;;;;;;;18.40;11.40;;;;;;;0.00;100.00;59042.03;10385870;28;20361;-68
2023/04/06 15:55:30;;;;;;;33.92;12.02;;;;;;;0.00;100.00;59042.03;10382997;28;20416;-67
2023/04/06 16:00:31;;;;;;;15.83;8.13;;;;;;;0.00;100.00;59042.03;10384512;28;20033;-69
2023/04/06 16:05:31;;;;;;;20.67;11.98;;;;;;;0.00;100.00;59042.03;10358862;28;20300;-75
2023/04/06 16:10:32;;;;;;;25.10;13.03;;;;;;;0.00;100.00;59042.03;10353403;28;20026;-75
2023/04/06 16:15:32;;;;;;;19.73;12.10;;;;;;;0.00;100.00;59042.03;10367102;28;20773;-73
2023/04/06 16:20:34;;;;;;;24.02;12.27;;;;;;;0.00;100.00;59042.03;10358664;28;20036;-74
2023/04/06 16:25:35;;;;;;;25.27;12.02;;;;;;;0.00;100.00;59042.03;10358352;28;20044;-69
2023/04/06 16:30:36;;;;;;;19.30;10.50;;;;;;;0.00;100.00;59042.03;10365204;28;20033;-68
2023/04/06 16:35:44;;;;;;;27.50;14.45;;;;;;;0.00;100.00;59042.03;10362787;28;20284;-69
2023/04/06 16:40:45;;;;;;;25.93;13.40;;;;;;;0.00;100.00;59042.03;10363469;28;20029;-69
2023/04/06 16:45:50;;;;;;;20.95;12.68;;;;;;;0.00;100.00;59042.03;10361583;28;20304;-69
2023/04/06 16:50:51;;;;;;;26.27;12.82;;;;;;;0.00;100.00;59042.03;10361351;28;20460;-69
2023/04/06 16:55:51;;;;;;;23.80;12.40;;;;;;;0.00;100.00;59042.03;10362984;28;20034;-68
2023/04/06 17:00:52;;;;;;;23.55;12.48;;;;;;;0.00;100.00;59042.03;10362616;28;20531;-68
2023/04/06 17:05:52;;;;;;;22.90;11.50;;;;;;;0.00;100.00;59042.03;10362193;28;20082;-68
2023/04/06 17:10:53;;;;;;;19.13;11.73;;;;;;;0.00;100.00;59042.03;10369785;28;20604;-69
2023/04/06 17:15:53;;;;;;;25.23;13.07;;;;;;;0.00;100.00;59042.03;10360049;28;20068;-67
2023/04/06 17:20:53;;;;;;;20.50;10.18;;;;;;;0.00;100.00;59042.03;10353180;28;20026;-72
2023/04/06 17:25:55;;;;;;;21.10;11.23;;;;;;;0.00;100.00;59042.03;10348997;28;20060;-70
2023/04/06 17:30:56;;;;;;;21.27;10.43;;;;;;;0.00;100.00;59042.03;10361376;28;20287;-70
2023/04/06 17:35:57;;;;;;;20.60;11.43;;;;;;;0.00;100.00;59042.03;10354535;28;20026;-69
2023/04/06 17:40:57;;;;;;;19.57;11.27;;;;;;;0.00;100.00;59042.03;10353575;28;20026;-70
2023/04/06 17:45:58;;;;;;;25.10;13.10;;;;;;;0.00;100.00;59042.03;10354268;28;20060;-68
2023/04/06 17:50:58;;;;;;;25.73;13.05;;;;;;;0.00;100.00;59042.03;10355870;28;20030;-67
2023/04/06 17:56:03;;;;;;;19.63;11.57;;;;;;;0.00;100.00;59042.03;10358276;28;20048;-66
2023/04/06 18:01:08;;;;;;;26.10;12.32;;;;;;;0.00;100.00;59042.03;10358130;28;20088;-65
2023/04/06 18:06:13;;;;;;;25.83;13.27;;;;;;;0.00;100.00;59042.03;10353036;28;20057;-66
2023/04/06 18:11:17;;;;;;;22.67;13.13;;;;;;;0.00;100.00;59042.03;10361098;28;20022;-68
2023/04/06 18:16:19;;;;;;;21.33;12.43;;;;;;;0.00;100.00;59042.03;10342092;28;20777;-70
2023/04/06 18:21:20;;;;;;;21.63;11.60;;;;;;;0.00;100.00;59042.03;10350847;28;20021;-70
2023/04/06 18:26:20;;;;;;;25.23;11.27;;;;;;;0.00;100.00;59042.03;10363718;28;20033;-71
2023/04/06 18:31:21;;;;;;;21.83;11.65;;;;;;;0.00;100.00;59042.03;10370225;28;20040;-71
2023/04/06 18:36:21;;;;;;;21.73;11.27;;;;;;;0.00;100.00;59042.03;10373064;28;20045;-70
2023/04/06 18:41:22;;;;;;;30.85;12.15;;;;;;;0.00;100.00;59042.03;10377017;28;20718;-70
2023/04/06 18:46:24;;;;;;;20.70;12.38;;;;;;;0.00;100.00;59042.03;10379887;28;20059;-69
2023/04/06 18:51:29;;;;;;;20.45;11.10;;;;;;;0.00;100.00;59042.03;10357643;28;20033;-69
2023/04/06 18:56:31;;;;;;;24.00;10.93;;;;;;;0.00;100.00;59042.03;10377688;28;20091;-69
2023/04/06 19:01:32;;;;;;;17.98;9.98;;;;;;;0.00;100.00;59042.03;10376943;28;20050;-69
2023/04/06 19:06:32;;;;;;;19.05;10.73;;;;;;;0.00;100.00;59042.03;10370043;28;20029;-69
2023/04/06 19:11:33;;;;;;;20.23;11.20;;;;;;;0.00;100.00;59042.03;10380553;28;20069;-68
2023/04/06 19:16:39;;;;;;;20.07;10.37;;;;;;;0.00;100.00;59042.03;10380014;28;20264;-70
2023/04/06 19:21:40;;;;;;;17.65;10.48;;;;;;;0.00;100.00;59042.03;10343692;28;20712;-70
2023/04/06 19:26:41;;;;;;;18.85;10.13;;;;;;;0.00;100.00;59042.03;10378938;28;20029;-70
2023/04/06 19:31:42;;;;;;;23.67;10.90;;;;;;;0.00;100.00;59042.03;10387279;28;20068;-69
2023/04/06 19:36:43;;;;;;;19.60;11.18;;;;;;;0.00;100.00;59042.03;10378743;28;20738;-70
2023/04/06 19:41:44;;;;;;;20.50;10.60;;;;;;;0.00;100.00;59042.03;10372866;28;20022;-79
2023/04/06 19:46:47;;;;;;;19.40;9.93;;;;;;;0.00;100.00;59042.03;10389629;28;20052;-76
2023/04/06 19:51:48;;;;;;;18.95;10.27;;;;;;;0.00;100.00;59042.03;10384678;28;20488;-76
2023/04/06 19:56:51;;;;;;;18.10;10.52;;;;;;;0.00;100.00;59042.03;10399641;28;20056;-92
2023/04/06 20:01:51;;;;;;;16.55;10.15;;;;;;;0.00;100.00;59042.03;10402979;28;20049;-83
2023/04/06 20:06:52;;;;;;;17.38;10.30;;;;;;;0.00;100.00;59042.03;10414039;28;20029;-89
2023/04/06 20:11:53;;;;;;;16.38;8.70;;;;;;;0.00;100.00;59042.03;10409018;28;20094;-78
2023/04/06 20:16:53;;;;;;;25.58;11.23;;;;;;;0.00;100.00;59042.03;10409535;28;20412;-83
2023/04/06 20:21:54;;;;;;;17.65;10.73;;;;;;;0.00;100.00;59042.03;10411060;28;20056;-81
2023/04/06 20:26:55;;;;;;;24.17;10.18;;;;;;;0.00;100.00;59042.03;10406355;28;20064;-85
2023/04/06 20:31:57;;;;;;;20.08;9.88;;;;;;;0.00;100.00;59042.03;10403862;28;20105;-89
2023/04/06 20:36:57;;;;;;;13.38;8.85;;;;;;;0.00;100.00;59042.03;10403263;28;20440;-88
2023/04/06 20:41:59;;;;;;;20.40;9.00;;;;;;;0.00;100.00;59042.03;10403385;28;20029;-80
2023/04/06 20:47:00;;;;;;;17.02;9.45;;;;;;;0.00;100.00;59042.03;10373917;28;20022;-67
2023/04/06 20:52:01;;;;;;;20.38;9.57;;;;;;;0.00;100.00;59042.03;10379046;28;20360;-67
2023/04/06 20:57:02;;;;;;;17.33;9.27;;;;;;;0.00;100.00;59042.03;10391849;28;20132;-67
2023/04/06 21:02:03;;;;;;;17.83;9.55;;;;;;;0.00;100.00;59042.03;10380456;28;20045;-67
2023/04/06 21:07:04;;;;;;;14.15;8.43;;;;;;;0.00;100.00;59042.03;10381303;28;20045;-68
2023/04/06 21:12:05;;;;;;;17.27;9.73;;;;;;;0.00;100.00;59042.03;10341000;28;20010;-67
2023/04/06 21:17:06;;;;;;;20.15;9.70;;;;;;;0.00;100.00;59042.03;10341313;28;20408;-67
2023/04/06 21:22:06;;;;;;;19.02;9.55;;;;;;;0.00;100.00;59042.03;10342611;28;20036;-67
2023/04/06 21:27:07;;;;;;;16.15;9.35;;;;;;;0.00;100.00;59042.03;10370952;28;20451;-67
2023/04/06 21:32:07;;;;;;;16.00;9.52;;;;;;;0.00;100.00;59042.03;10382806;28;20030;-67
2023/04/06 21:37:08;;;;;;;17.80;10.10;;;;;;;0.00;100.00;59042.03;10382909;28;20264;-67
2023/04/06 21:42:08;;;;;;;15.70;9.88;;;;;;;0.00;100.00;59042.03;10381892;28;20369;-67
2023/04/06 21:47:09;;;;;;;15.85;8.98;;;;;;;0.00;100.00;59042.03;10370682;28;20041;-67
2023/04/06 21:52:09;;;;;;;17.98;9.15;;;;;;;0.00;100.00;59042.03;10382256;28;20440;-67
2023/04/06 21:57:12;;;;;;;17.35;9.00;;;;;;;0.00;100.00;59042.03;10381630;28;20029;-67
2023/04/06 22:02:12;;;;;;;17.65;9.13;;;;;;;0.00;100.00;59042.03;10381786;28;20095;-67
2023/04/06 22:07:13;;;;;;;20.05;8.90;;;;;;;0.00;100.00;59042.03;10382034;28;20138;-68
2023/04/06 22:12:15;;;;;;;15.55;8.43;;;;;;;0.00;100.00;59042.03;10381257;28;20074;-68
2023/04/06 22:17:15;;;;;;;15.32;8.93;;;;;;;0.00;100.00;59042.03;10381007;28;20330;-67
2023/04/06 22:22:15;;;;;;;13.85;8.43;;;;;;;0.00;100.00;59042.03;10380743;28;20025;-67
2023/04/06 22:27:16;;;;;;;14.55;8.95;;;;;;;0.00;100.00;59042.03;10380004;28;20060;-67
2023/04/06 22:32:16;;;;;;;16.35;8.68;;;;;;;0.00;100.00;59042.03;10381075;28;20412;-67
2023/04/06 22:37:17;;;;;;;16.67;9.25;;;;;;;0.00;100.00;59042.03;10380846;28;20423;-67
2023/04/06 22:42:17;;;;;;;12.82;7.95;;;;;;;0.00;100.00;59042.03;10379164;28;20064;-67
2023/04/06 22:47:18;;;;;;;19.50;9.65;;;;;;;0.00;100.00;59042.03;10380840;28;20033;-66
2023/04/06 22:52:18;;;;;;;19.10;9.40;;;;;;;0.00;100.00;59042.03;10380237;28;20542;-67
2023/04/06 22:57:21;;;;;;;17.92;10.73;;;;;;;0.00;100.00;59042.03;10380380;28;20025;-67